Tiempo atmosférico en la estación meteorológica de Llorac, Tarragona (660 m.)



Fecha
DESCASC
Temp. máxima en grados centígrados (hora)
DESCASC
Temp. mínima en grados centígrados (hora)
DESCASC
Temp. media en grados centígrados
DESCASC
Racha de viento máxima en m/sg (hora)
DESCASC
Velocidad máxima media en intervalos de 10 minutos(hora)
DESCASC
Precipitaciones diarias en mm
DESCASC
Precipitaciones de 00:00 a 06:00 en mm
DESCASC
Precipitaciones de 06:00 a 12:00 en mm
DESCASC
Precipitaciones de 12:00 a 18:00 en mm
DESCASC
Precipitaciones de 18:00 a 24:00 en mm
DESCASC
16-06-2019 27.5 (16:30) 7.1 (06:30) 17.3 8.33 (14:30) 4.44 (17:20) 0 0 0 0 0
15-06-2019 24.8 (17:50) 8 (06:00) 16.4 10.83 (11:20) 8.61 (11:20) 0 0 0 0 0
14-06-2019 25.3 (18:10) 11.9 (01:00) 18.6 10 (15:10) 7.22 (14:50) 0 0 0 0 0
13-06-2019 24.2 (15:20) 3.3 (00:00) 13.8 9.72 (18:40) 6.39 (17:50) 0 0 0 0 0
12-06-2019 20.7 (17:40) 0.1 (00:00) 10.4 8.89 (15:40) 5.28 (15:10) 0 0 0 0 0
11-06-2019 15.8 (00:00) 5.6 (00:00) 10.7 9.17 (13:30) 6.67 (15:30) 2.6 0.6 0.6 1.4 0
10-06-2019 23.2 (18:00) 6.8 (00:00) 15 11.11 (17:30) 7.5 (12:10) 0 0 0 0 0
09-06-2019 27 (17:30) 11.6 (00:00) 19.3 6.94 (20:20) 4.44 (21:10) 0 0 0 0 0
08-06-2019 23.4 (14:30) 3.6 (00:00) 13.5 8.89 (16:20) 5 (16:30) 0 0 0 0 0
07-06-2019 21.6 (16:50) 7.2 (00:00) 14.4 13.61 (15:30) 8.89 (13:40) 0 0 0 0 0
06-06-2019 19.9 (15:20) 2.2 (00:00) 11 12.22 (18:50) 7.22 (18:50) 0 0 0 0 0
05-06-2019 19.6 (11:00) 8.6 (00:00) 14.1 14.72 (19:20) 10.28 (18:10) 0 0 0 0 0
04-06-2019 24.6 (16:20) 12.7 (00:00) 18.7 11.67 (18:50) 7.22 (18:40) 0 0 0 0 0
03-06-2019 24.3 (13:20) 8.3 (00:00) 16.3 11.39 (16:10) 5.83 (15:10) 0 0 0 0 0
02-06-2019 24.9 (13:10) 7.7 (00:00) 16.3 9.17 (16:40) 5.56 (17:30) 0 0 0 0 0
01-06-2019 26.3 (15:20) 7.5 (00:00) 16.9 8.33 (19:10) 4.72 (19:50) 0 0 0 0 0
31-05-2019 23.4 (14:10) 5.2 (00:00) 14.3 9.44 (17:00) 5.83 (22:20) 0 0 0 0 0
30-05-2019 24 (16:40) 2.5 (00:00) 13.3 8.33 (17:30) 5 (18:30) 0 0 0 0 0
29-05-2019 21.5 (18:30) 5.5 (00:00) 13.5 11.11 (14:00) 6.67 (12:30) 0 0 0 0 0
28-05-2019 20.2 (16:50) 6.6 (00:00) 13.4 12.22 (17:10) 8.06 (11:40) 0 0 0 0 0
27-05-2019 21.8 (17:50) 8.3 (00:00) 15 10 (13:00) 6.94 (08:50) 0 0 0 0 0
26-05-2019 21.1 (17:30) 7.3 (00:00) 14.2 10 (10:40) 7.5 (11:00) 0 0 0 0 0
25-05-2019 20.2 (19:00) 10.7 (00:00) 15.5 7.78 (19:20) 5.28 (19:20) 0.6 0.4 0 0.2 0
24-05-2019 13.9 (14:30) 11.4 (00:00) 12.6 5.83 (15:10) 4.72 (15:10) 27 1.4 10 11.2 4.4
23-05-2019 26.5 (16:00) 3.7 (00:00) 15.1 9.17 (18:00) 5 (19:50) 0 0 0 0 0
22-05-2019 23.5 (17:10) 5.8 (00:00) 14.7 9.17 (16:00) 5.28 (15:00) 0 0 0 0 0
21-05-2019 21.9 (16:10) 1.3 (06:40) 11.6 8.61 (15:30) 5.28 (14:10) 0 0 0 0 0

Gráficas

Temp. máximas Temp. mínimas Temp. medias Precipitaciones Rachas de viento máximas Velocidades máximas media en intervalos de 10 minutos

Datos horarios

Fecha y hora oficial Temperatura (ºC) Velocidad del viento (km/h) Dirección del viento Racha (km/h) Dirección de racha Precipitación (mm) Presión (hPa) Tendencia (hPa) Humedad (%)
2019-06-19 23:00:00 17.4 5 Sudeste 11 Sur 0 -- -- 68
2019-06-19 22:00:00 19.8 9 Sudeste 19 Sur 0 -- -- 61
2019-06-19 21:00:00 22.9 10 Sur 24 Sudoeste 0 -- -- 52
2019-06-19 20:00:00 24.8 15 Sudoeste 28 Sur 0 -- -- 45
2019-06-19 19:00:00 26.3 14 Sur 24 Oeste 0 -- -- 44
2019-06-19 18:00:00 29.5 14 Noroeste 24 Oeste 0 -- -- 29
2019-06-19 17:00:00 29.5 10 Noroeste 32 Oeste 0 -- -- 30
2019-06-19 16:00:00 28.7 18 Noroeste 33 Noroeste 0 -- -- 33
2019-06-19 15:00:00 28.6 15 Noroeste 33 Noroeste 0 -- -- 32
2019-06-19 14:00:00 28.7 16 Noroeste 28 Noroeste 0 -- -- 30
2019-06-19 13:00:00 28.2 13 Noroeste -- -- -- -- -- 27
2019-06-19 12:00:00 -- -- -- -- -- -- -- -- --
2019-06-19 11:00:00 -- -- -- -- -- -- -- -- --
2019-06-19 10:00:00 -- -- -- -- -- -- -- -- --
2019-06-19 09:00:00 -- -- -- -- -- -- -- -- --
2019-06-19 08:00:00 -- -- -- -- -- -- -- -- --
2019-06-19 07:00:00 -- -- -- -- -- -- -- -- --
2019-06-19 06:00:00 -- -- -- -- -- -- -- -- --
2019-06-19 05:00:00 -- -- -- -- -- -- -- -- --
2019-06-19 04:00:00 14.5 9 Sudeste 20 Sur 0 -- -- 54
2019-06-19 03:00:00 15.3 10 Sudeste 34 Sudeste 0 -- -- 51
2019-06-19 02:00:00 16.5 21 Sudeste 35 Sudeste 0 -- -- 52
2019-06-19 01:00:00 17.1 17 Sudeste 26 Sudeste 0 -- -- 52
2019-06-19 00:00:00 16.1 12 Sudeste 23 Sudeste 0 -- -- 59
2019-06-18 23:00:00 16.8 15 Sudeste 26 Sur 0 -- -- 55
2019-06-18 22:00:00 17.3 15 Sudeste 26 Sudeste 0 -- -- 62
2019-06-18 21:00:00 19.6 13 Sudeste 28 Sudeste 0 -- -- 40
2019-06-18 20:00:00 21.6 17 Sudeste 36 Sudeste 0 -- -- 33
2019-06-18 19:00:00 23.1 18 Sur 38 Sur 0 -- -- 39
2019-06-18 18:00:00 24.1 16 Sur 35 Sudoeste 0 -- -- 41
2019-06-18 17:00:00 25.4 15 Sur 38 Sur 0 -- -- 37
2019-06-18 16:00:00 25.9 15 Sudoeste 34 Sur 0 -- -- 36
2019-06-18 15:00:00 26.2 20 Sudoeste 40 Sur 0 -- -- 33
2019-06-18 14:00:00 26.1 19 Sur 37 Sur 0 -- -- 32
2019-06-18 13:00:00 26 13 Sur 33 Sur 0 -- -- 34
2019-06-18 12:00:00 24.3 22 Sur 39 Sur 0 -- -- 35
2019-06-18 11:00:00 23 14 Sur 30 Sur 0 -- -- 36
2019-06-18 10:00:00 22.8 16 Sudoeste 27 Sudeste 0 -- -- 34
2019-06-18 09:00:00 20.8 17 Sur 27 Sur 0 -- -- 40
2019-06-18 08:00:00 17.9 9 Sudeste 15 Sur 0 -- -- 48
2019-06-18 07:00:00 11.3 7 Sudeste 11 Sudeste 0 -- -- 78
2019-06-18 06:00:00 11.8 5 Sudeste 12 Sudeste 0 -- -- 75
2019-06-18 05:00:00 13.5 9 Sudeste 13 Este 0 -- -- 67
2019-06-18 04:00:00 14.3 5 Este 11 Este 0 -- -- 62
2019-06-18 03:00:00 16.8 8 Este 19 Sur 0 -- -- 52
2019-06-18 02:00:00 17.3 12 Sur 25 Sur 0 -- -- 47
2019-06-18 01:00:00 16.7 9 Sudeste 20 Sur 0 -- -- 48
2019-06-18 00:00:00 16.3 9 Sudeste 18 Sudeste 0 -- -- 50
2019-06-17 23:00:00 16.7 11 Sudeste 19 Sudeste 0 -- -- 48
2019-06-17 22:00:00 17.3 12 Sudeste 24 Sudeste 0 -- -- 53
2019-06-17 21:00:00 19.3 15 Sur 30 Sur 0 -- -- 52
2019-06-17 20:00:00 22 13 Sur 31 Sur 0 -- -- 51
2019-06-17 19:00:00 24.1 15 Sur 28 Sudoeste 0 -- -- 49
2019-06-17 18:00:00 26.4 15 Sur 32 Sudeste 0 -- -- 41
2019-06-17 17:00:00 27.2 13 Sur 29 Sudeste 0 -- -- 42
2019-06-17 16:00:00 28.5 12 Sudoeste 26 Sur 0 -- -- 38
2019-06-17 15:00:00 28.8 11 Sur 26 Oeste 0 -- -- 35
2019-06-17 14:00:00 29.1 7 Sudeste 18 Sudeste 0 -- -- 26
2019-06-17 13:00:00 27.9 8 Sur 22 Sudeste 0 -- -- 28
2019-06-17 12:00:00 26.7 13 Sudeste 36 Sudeste 0 -- -- 30
2019-06-17 11:00:00 25.5 9 Sur 20 Sudeste 0 -- -- 35
2019-06-17 10:00:00 23.8 9 Sur 19 Sudeste 0 -- -- 36
2019-06-17 09:00:00 20.4 10 Este 14 Sudeste 0 -- -- 43
2019-06-17 08:00:00 11.6 9 Sudeste 14 Sudeste 0 -- -- 83
2019-06-17 07:00:00 6.4 8 Sudeste 13 Sudeste 0 -- -- 95
2019-06-17 06:00:00 5.9 9 Sudeste 13 Sudeste 0 -- -- 96
2019-06-17 05:00:00 6.3 7 Sudeste 11 Sudeste 0 -- -- 94
2019-06-17 04:00:00 6.6 9 Sudeste 13 Sudeste 0 -- -- 93
2019-06-17 03:00:00 7.6 9 Sudeste 12 Sudeste 0 -- -- 91
2019-06-17 02:00:00 8 8 Sudeste 13 Sudeste 0 -- -- 90
2019-06-17 01:00:00 10.2 8 Sudeste 14 Sudeste 0 -- -- 86
2019-06-17 00:00:00 12.2 10 Sudeste 22 Sudeste 0 -- -- 79
2019-06-16 23:00:00 15.3 14 Sudeste 21 Sudeste 0 -- -- 69
2019-06-16 22:00:00 16.4 13 Este 23 Sudeste 0 -- -- 69
2019-06-16 21:00:00 18.1 13 Este 25 Sur 0 -- -- 63
2019-06-16 20:00:00 20.2 13 Sur 25 Sur 0 -- -- 59
2019-06-16 19:00:00 21.5 9 Sur 25 Sudoeste 0 -- -- 55
2019-06-16 18:00:00 22.5 16 Sudoeste 28 Sur 0 -- -- 51
2019-06-16 17:00:00 26 13 Sudoeste 23 Oeste 0 -- -- 41
2019-06-16 16:00:00 26.8 12 Oeste 28 Sur 0 -- -- 37
2019-06-16 15:00:00 26.5 11 Oeste 30 Noroeste 0 -- -- 39
2019-06-16 14:00:00 25.7 14 Noroeste 27 Oeste 0 -- -- 37
2019-06-16 13:00:00 24.1 13 Noroeste 26 Oeste 0 -- -- 42
2019-06-16 12:00:00 23 12 Noroeste 23 Noroeste 0 -- -- 41
2019-06-16 11:00:00 21.3 10 Noroeste 19 Noroeste 0 -- -- 49
2019-06-16 10:00:00 19.5 8 Noroeste 13 Oeste 0 -- -- 58
2019-06-16 09:00:00 16.5 8 Noroeste 13 Noroeste 0 -- -- 74
2019-06-16 08:00:00 11.7 3 Este 9 Sudeste 0 -- -- 100
2019-06-16 07:00:00 7.3 6 Sudeste 8 Sudeste 0 -- -- 99
2019-06-16 06:00:00 7.6 4 Sudeste 12 Sudeste 0 -- -- 98
2019-06-16 05:00:00 8.7 9 Sudeste 13 Sudeste 0 -- -- 97
2019-06-16 04:00:00 10.1 5 Sudeste 15 Sudeste 0 -- -- 96
2019-06-16 03:00:00 11.9 8 Sudeste 22 Este 0 -- -- 96
2019-06-16 02:00:00 13.1 16 Sudeste 24 Sudeste 0 -- -- 96
2019-06-16 01:00:00 13.2 9 Sudeste 23 Este 0 -- -- 95
2019-06-16 00:00:00 13.5 9 Sudeste 21 Sudeste 0 -- -- 93
2019-06-15 23:00:00 14.4 15 Sudeste 23 Este 0 -- -- 89
2019-06-15 22:00:00 16.4 11 Este 18 Sudoeste 0 -- -- 76
2019-06-15 21:00:00 20.2 10 Sudoeste 24 Oeste 0 -- -- 58
2019-06-15 20:00:00 23.5 14 Noroeste 31 Noroeste 0 -- -- 31
2019-06-15 19:00:00 24.2 17 Noroeste 32 Oeste 0 -- -- 31
2019-06-15 18:00:00 24.6 18 Noroeste 36 Oeste 0 -- -- 31
2019-06-15 17:00:00 24.5 16 Oeste 32 Oeste 0 -- -- 31
2019-06-15 16:00:00 24.3 16 Noroeste 32 Noroeste 0 -- -- 33
2019-06-15 15:00:00 23.7 14 Noroeste 32 Oeste 0 -- -- 36
2019-06-15 14:00:00 22.4 13 Noroeste 29 Oeste 0 -- -- 45
2019-06-15 13:00:00 21 15 Oeste 32 Oeste 0 -- -- 48
2019-06-15 12:00:00 19 25 Noroeste 39 Noroeste 0 -- -- 56
2019-06-15 11:00:00 17.8 27 Noroeste 39 Noroeste 0 -- -- 61
2019-06-15 10:00:00 16.7 22 Noroeste 38 Oeste 0 -- -- 68
2019-06-15 09:00:00 14.9 28 Noroeste 38 Oeste 0 -- -- 74
2019-06-15 08:00:00 14.2 28 Noroeste 36 Noroeste 0 -- -- 79
2019-06-15 07:00:00 12.2 13 Noroeste 22 Noroeste 0 -- -- 90
2019-06-15 06:00:00 8 3 Sudeste 9 Sudeste 0 -- -- 95
2019-06-15 05:00:00 9 8 Sudeste 13 Sudeste 0 -- -- 94
2019-06-15 04:00:00 9.7 8 Sudeste 14 Sudeste 0 -- -- 93
2019-06-15 03:00:00 9.4 12 Sudeste 17 Sudeste 0 -- -- 94
2019-06-15 02:00:00 10.4 8 Sudeste 14 Sudeste 0 -- -- 91
2019-06-15 01:00:00 11.6 8 Sudeste 16 Sudeste 0 -- -- 87
2019-06-15 00:00:00 14.2 9 Sudeste 17 Sudeste 0 -- -- 79
2019-06-14 23:00:00 14.1 10 Sudeste 18 Sudeste 0 -- -- 83
2019-06-14 22:00:00 16.2 9 Sudeste 15 Sudeste 0 -- -- 76
2019-06-14 21:00:00 19 11 Sur 25 Sur 0 -- -- 66
2019-06-14 20:00:00 22 11 Sur 18 Sudoeste 0 -- -- 58
2019-06-14 19:00:00 23.8 10 Sur 31 Oeste 0 -- -- 51
2019-06-14 18:00:00 25.1 16 Noroeste 31 Noroeste 0 -- -- 40
2019-06-14 17:00:00 24.4 18 Noroeste 30 Oeste 0 -- -- 40
2019-06-14 16:00:00 21.1 15 Noroeste 36 Oeste 0 -- -- 50
2019-06-14 15:00:00 22.2 25 Noroeste 35 Oeste 0 -- -- 45
2019-06-14 14:00:00 24.5 17 Noroeste 26 Noroeste 0 -- -- 42
2019-06-14 13:00:00 21.4 9 Noroeste 26 Noroeste 0 -- -- 49
2019-06-14 12:00:00 20.4 5 Norte 22 Noroeste 0 -- -- 52
2019-06-14 11:00:00 19.1 15 Noroeste 30 Noroeste 0 -- -- 49
2019-06-14 10:00:00 18.2 17 Noroeste 27 Oeste 0 -- -- 55
2019-06-14 09:00:00 16.5 3 Sudoeste 17 Noroeste 0 -- -- 63
2019-06-14 08:00:00 15.3 4 Norte 10 Noroeste 0 -- -- 65
2019-06-14 07:00:00 15.6 10 Noroeste 22 Oeste 0 -- -- 62
2019-06-14 06:00:00 16.2 6 Sudeste 28 Este 0 -- -- 63
2019-06-14 05:00:00 16.1 13 Sudeste 21 Sudeste 0 -- -- 62
2019-06-14 04:00:00 15.9 13 Sudeste 26 Sudeste 0 -- -- 58
2019-06-14 03:00:00 15.5 16 Sudeste 25 Sudeste 0 -- -- 55
2019-06-14 02:00:00 13.5 16 Sudeste 26 Sudeste 0 -- -- 52
2019-06-14 01:00:00 11.9 5 Este 17 Sudeste 0 -- -- 53
2019-06-14 00:00:00 13.1 7 Sudeste 15 Sudeste 0 -- -- 47
2019-06-13 23:00:00 13.2 8 Sudeste 16 Sudeste 0 -- -- 46
2019-06-13 22:00:00 13.7 14 Sudeste 20 Sudeste 0 -- -- 53
2019-06-13 21:00:00 16.3 12 Sudeste 31 Este 0 -- -- 48
2019-06-13 20:00:00 18.7 15 Sudeste 32 Sudeste 0 -- -- 37
2019-06-13 19:00:00 20.1 19 Sudeste 35 Sudeste 0 -- -- 47
2019-06-13 18:00:00 21.6 21 Sudeste 35 Sudeste 0 -- -- 47
2019-06-13 17:00:00 20.2 19 Sudeste 33 Sudeste 0 -- -- 50
2019-06-13 16:00:00 23.6 17 Sur 31 Sudeste 0 -- -- 42
2019-06-13 15:00:00 23.6 15 Sudeste 31 Sudeste 0 -- -- 35
2019-06-13 14:00:00 23.2 12 Sudeste 28 Sudeste 0 -- -- 38
2019-06-13 13:00:00 21.6 14 Sur 24 Sudoeste 0 -- -- 39
2019-06-13 12:00:00 20.9 8 Sudeste 26 Este 0 -- -- 43
2019-06-13 11:00:00 19 11 Sudeste 23 Sudeste 0 -- -- 46
2019-06-13 10:00:00 17.8 10 Este 17 Este 0 -- -- 50
2019-06-13 09:00:00 15.4 8 Sudeste 15 Sudeste 0 -- -- 53
2019-06-13 08:00:00 8.7 4 Sudeste 6 Sudeste 0 -- -- 96
2019-06-13 07:00:00 3.9 3 Sudeste 6 Sudeste 0 -- -- 99
2019-06-13 06:00:00 3.6 5 Sudeste 9 Sudeste 0 -- -- 97
2019-06-13 05:00:00 4.1 9 Sudeste 10 Sudeste 0 -- -- 95
2019-06-13 04:00:00 6.1 7 Sudeste 15 Sudeste 0 -- -- 91
2019-06-13 03:00:00 5.7 6 Sudeste 16 Sudeste 0 -- -- 87
2019-06-13 02:00:00 5 9 Sudeste 13 Sudeste 0 -- -- 91
2019-06-13 01:00:00 6.5 12 Sudeste 14 Sudeste 0 -- -- 88
2019-06-13 00:00:00 7.7 10 Sudeste 19 Sudeste 0 -- -- 84
2019-06-12 23:00:00 10.4 13 Sudeste 21 Este 0 -- -- 75
2019-06-12 22:00:00 11.7 15 Este 22 Este 0 -- -- 71
2019-06-12 21:00:00 14.3 10 Sudeste 21 Sur 0 -- -- 61
2019-06-12 20:00:00 16.8 11 Sudoeste 19 Sur 0 -- -- 54
2019-06-12 19:00:00 18.8 11 Sudoeste 20 Sur 0 -- -- 48
2019-06-12 18:00:00 20.3 14 Noroeste 23 Noroeste 0 -- -- 31
2019-06-12 17:00:00 20.1 8 Oeste 30 Noroeste 0 -- -- 32
2019-06-12 16:00:00 19.8 12 Noroeste 32 Noroeste 0 -- -- 33
2019-06-12 15:00:00 19 14 Oeste 28 Noroeste 0 -- -- 35
2019-06-12 14:00:00 18 8 Noroeste 27 Noroeste 0 -- -- 40
2019-06-12 13:00:00 16.9 10 Oeste 26 Oeste 0 -- -- 44
2019-06-12 12:00:00 15.7 9 Noroeste 18 Noroeste 0 -- -- 52
2019-06-12 11:00:00 13.8 12 Noroeste 20 Oeste 0 -- -- 62
2019-06-12 10:00:00 12.5 9 Noroeste 16 Noroeste 0 -- -- 68
2019-06-12 09:00:00 11 3 Nordeste 8 Este 0 -- -- 77
2019-06-12 08:00:00 4.6 4 Este 11 Sudeste 0 -- -- 100
2019-06-12 07:00:00 0.1 6 Este 9 Sudeste 0 -- -- 100
2019-06-12 06:00:00 0.1 6 Sudeste 8 Sudeste 0 -- -- 99
2019-06-12 05:00:00 0.7 5 Sudeste 10 Sudeste 0 -- -- 98
2019-06-12 04:00:00 2 3 Sudeste 9 Sudeste 0 -- -- 98
2019-06-12 03:00:00 2.8 5 Sudeste 10 Este 0 -- -- 98
2019-06-12 02:00:00 3.4 5 Sudeste 9 Sudeste 0 -- -- 97
2019-06-12 01:00:00 4.9 8 Sudeste 12 Sudeste 0 -- -- 93
2019-06-12 00:00:00 6.6 3 Norte 6 Norte 0 -- -- 89
2019-06-11 23:00:00 6 3 Este 7 Sudeste 0 -- -- 94
2019-06-11 22:00:00 8.3 3 Nordeste 9 Sudeste 0 -- -- 91
2019-06-11 21:00:00 12.3 5 Sudeste 9 Sudeste 0 -- -- 77
2019-06-11 20:00:00 12 0 Calma 5 Noroeste 0 -- -- 80
2019-06-11 19:00:00 11.6 3 Oeste 21 Oeste 0 -- -- 79
2019-06-11 18:00:00 11.6 16 Noroeste 27 Oeste 0 -- -- 82
2019-06-11 17:00:00 11.8 21 Noroeste 32 Oeste 0 -- -- 82
2019-06-11 16:00:00 10.8 21 Noroeste 33 Noroeste 0 -- -- 89
2019-06-11 15:00:00 9.2 23 Noroeste 32 Oeste 0 -- -- 94
2019-06-11 14:00:00 9.1 18 Noroeste 33 Oeste 0.4 -- -- 97
2019-06-11 13:00:00 8.6 19 Noroeste 32 Noroeste 1 -- -- 98
2019-06-11 12:00:00 8.9 18 Noroeste 28 Oeste 0.2 -- -- 97
2019-06-11 11:00:00 8.9 19 Noroeste 26 Noroeste 0.2 -- -- 96
2019-06-11 10:00:00 8.8 17 Noroeste 23 Oeste 0.2 -- -- 95
2019-06-11 09:00:00 9 16 Noroeste 21 Noroeste 0 -- -- 91
2019-06-11 08:00:00 9.4 13 Noroeste 16 Noroeste 0 -- -- 88
2019-06-11 07:00:00 9.2 5 Noroeste 14 Noroeste 0 -- -- 91
2019-06-11 06:00:00 9.5 6 Noroeste 9 Oeste 0 -- -- 92
2019-06-11 05:00:00 9.6 3 Norte 6 Norte 0.6 -- -- 91
2019-06-11 04:00:00 10.5 4 Nordeste 10 Sudeste 0 -- -- 81
2019-06-11 03:00:00 12.3 8 Oeste 27 Noroeste 0 -- -- 67
2019-06-11 02:00:00 14.3 20 Noroeste 32 Noroeste 0 -- -- 47
2019-06-11 01:00:00 14.6 8 Oeste 25 Oeste 0 -- -- 49
2019-06-11 00:00:00 15.8 17 Noroeste 31 Noroeste 0 -- -- 45
2019-06-10 23:00:00 16.9 13 Noroeste 22 Oeste 0 -- -- 43
2019-06-10 22:00:00 16.7 2 Oeste 17 Oeste 0 -- -- 46
2019-06-10 21:00:00 19.2 12 Oeste 26 Noroeste 0 -- -- 37
2019-06-10 20:00:00 20.2 21 Noroeste 32 Noroeste 0 -- -- 38
2019-06-10 19:00:00 22.4 23 Oeste 39 Noroeste 0 -- -- 39
2019-06-10 18:00:00 23.2 18 Oeste 40 Noroeste 0 -- -- 40
2019-06-10 17:00:00 22.6 21 Noroeste 38 Noroeste 0 -- -- 43
2019-06-10 16:00:00 21.6 22 Noroeste 35 Noroeste 0 -- -- 47
2019-06-10 15:00:00 20.3 23 Noroeste 37 Noroeste 0 -- -- 49
2019-06-10 14:00:00 20.1 22 Noroeste 37 Noroeste 0 -- -- 50
2019-06-10 13:00:00 18.9 21 Noroeste 37 Noroeste 0 -- -- 54
2019-06-10 12:00:00 17.5 23 Noroeste 35 Noroeste 0 -- -- 60
2019-06-10 11:00:00 15.9 23 Noroeste 34 Noroeste 0 -- -- 66
2019-06-10 10:00:00 14.3 15 Oeste 28 Noroeste 0 -- -- 72
2019-06-10 09:00:00 13.9 24 Noroeste 32 Noroeste 0 -- -- 73
2019-06-10 08:00:00 11.6 13 Noroeste 21 Noroeste 0 -- -- 84
2019-06-10 07:00:00 11.5 12 Noroeste 21 Noroeste 0 -- -- 85
2019-06-10 06:00:00 12.2 15 Noroeste 21 Noroeste 0 -- -- 81
2019-06-10 05:00:00 10.2 10 Noroeste 15 Noroeste 0 -- -- 80
2019-06-10 04:00:00 7 2 Este 8 Sudeste 0 -- -- 82
2019-06-10 03:00:00 8.1 5 Sudeste 12 Sudeste 0 -- -- 78
2019-06-10 02:00:00 10.5 5 Norte 13 Sudeste 0 -- -- 69
2019-06-10 01:00:00 11 4 Este 13 Sudeste 0 -- -- 69
2019-06-10 00:00:00 12.4 8 Sudeste 19 Sudeste 0 -- -- 61
2019-06-09 23:00:00 12.2 13 Sudeste 21 Este 0 -- -- 60
2019-06-09 22:00:00 15 6 Sudeste 22 Este 0 -- -- 49
2019-06-09 21:00:00 17.3 15 Sudeste 25 Sudeste 0 -- -- 42
2019-06-09 20:00:00 20.4 13 Sudoeste 22 Sur 0 -- -- 37
2019-06-09 19:00:00 22.8 13 Sur 24 Sudoeste 0 -- -- 35
2019-06-09 18:00:00 26 9 Oeste 24 Oeste 0 -- -- 32
2019-06-09 17:00:00 26.4 6 Sur 16 Oeste 0 -- -- 30
2019-06-09 16:00:00 25.6 6 Nordeste 22 Nordeste 0 -- -- 29
2019-06-09 15:00:00 24.4 3 Oeste 10 Este 0 -- -- 32
2019-06-09 14:00:00 23.6 4 Sudeste 17 Sudeste 0 -- -- 33
2019-06-09 13:00:00 22.6 10 Sudeste 15 Sudeste 0 -- -- 31
2019-06-09 12:00:00 22.9 9 Sudeste 20 Sudeste 0 -- -- 32
2019-06-09 11:00:00 22 7 Sur 22 Este 0 -- -- 35
2019-06-09 10:00:00 18.8 7 Sudeste 12 Sudeste 0 -- -- 46
2019-06-09 09:00:00 14.9 6 Sudeste 11 Oeste 0 -- -- 61
2019-06-09 08:00:00 12.4 3 Nordeste 10 Sudeste 0 -- -- 69
2019-06-09 07:00:00 11.8 4 Sudeste 12 Sudeste 0 -- -- 67
2019-06-09 06:00:00 12.9 3 Sudeste 10 Noroeste 0 -- -- 59
2019-06-09 05:00:00 13.7 3 Este 9 Sudeste 0 -- -- 54
2019-06-09 04:00:00 14.3 8 Sudeste 12 Sudeste 0 -- -- 44
2019-06-09 03:00:00 14.6 8 Sudeste 15 Sudeste 0 -- -- 38
2019-06-09 02:00:00 14.3 13 Sudeste 20 Sudeste 0 -- -- 44
2019-06-09 01:00:00 14.3 10 Sudeste 14 Sudeste 0 -- -- 54
2019-06-09 00:00:00 14.5 13 Sudeste 21 Sudeste 0 -- -- 55
2019-06-08 23:00:00 13.5 12 Sudeste 17 Sudeste 0 -- -- 61
2019-06-08 22:00:00 14.6 13 Sudeste 19 Sudeste 0 -- -- 58
2019-06-08 21:00:00 16.4 12 Sudeste 23 Sudeste 0 -- -- 54
2019-06-08 20:00:00 18.1 15 Sudeste 26 Sudeste 0 -- -- 51
2019-06-08 19:00:00 19.7 13 Sur 31 Sudeste 0 -- -- 51
2019-06-08 18:00:00 20.6 16 Sur 31 Sudeste 0 -- -- 48
2019-06-08 17:00:00 21.4 16 Sur 32 Sudoeste 0 -- -- 46
2019-06-08 16:00:00 21.5 18 Sudoeste 31 Sudoeste 0 -- -- 48
2019-06-08 15:00:00 23.1 15 Sudoeste 31 Oeste 0 -- -- 47
2019-06-08 14:00:00 23.2 8 Sur 27 Sudoeste 0 -- -- 44
2019-06-08 13:00:00 23 7 Este 22 Sudeste 0 -- -- 38
2019-06-08 12:00:00 21 5 Sudeste 15 Sudoeste 0 -- -- 40
2019-06-08 11:00:00 19.6 9 Noroeste 17 Noroeste 0 -- -- 44
2019-06-08 10:00:00 18.1 9 Noroeste 15 Oeste 0 -- -- 54
2019-06-08 09:00:00 15.9 3 Norte 6 Noroeste 0 -- -- 64
2019-06-08 08:00:00 9.2 0 Calma 9 Sudeste 0 -- -- 89
2019-06-08 07:00:00 4.6 7 Sudeste 13 Sudeste 0 -- -- 96
2019-06-08 06:00:00 4.2 11 Sudeste 14 Sudeste 0 -- -- 93
2019-06-08 05:00:00 3.6 8 Sudeste 12 Sudeste 0 -- -- 90
2019-06-08 04:00:00 3.8 4 Sudeste 11 Sudeste 0 -- -- 87
2019-06-08 03:00:00 4.4 8 Sudeste 13 Sudeste 0 -- -- 85
2019-06-08 02:00:00 4.8 5 Este 15 Sudeste 0 -- -- 83
2019-06-08 01:00:00 5.3 5 Sudeste 8 Sudeste 0 -- -- 81
2019-06-08 00:00:00 7.2 4 Sudeste 8 Sudeste 0 -- -- 72
2019-06-07 23:00:00 8.6 8 Sudeste 10 Sudeste 0 -- -- 65
2019-06-07 22:00:00 11.4 9 Sudeste 13 Sudeste 0 -- -- 54
2019-06-07 21:00:00 18.4 3 Oeste 24 Oeste 0 -- -- 34
2019-06-07 20:00:00 20 17 Noroeste 40 Noroeste 0 -- -- 27
2019-06-07 19:00:00 20.6 23 Oeste 40 Noroeste 0 -- -- 28
2019-06-07 18:00:00 20.9 19 Noroeste 39 Noroeste 0 -- -- 31
2019-06-07 17:00:00 21.4 22 Noroeste 44 Oeste 0 -- -- 31
2019-06-07 16:00:00 20.7 28 Noroeste 49 Noroeste 0 -- -- 36
2019-06-07 15:00:00 20.4 24 Noroeste 47 Oeste 0 -- -- 43
2019-06-07 14:00:00 19.2 30 Noroeste 47 Noroeste 0 -- -- 53
2019-06-07 13:00:00 18.2 27 Noroeste 42 Noroeste 0 -- -- 62
2019-06-07 12:00:00 17.9 29 Noroeste 45 Oeste 0 -- -- 69
2019-06-07 11:00:00 20.2 14 Oeste 28 Sudoeste 0 -- -- 58
2019-06-07 10:00:00 17.3 13 Sur 27 Sudeste 0 -- -- 72
2019-06-07 09:00:00 16.1 15 Sur 32 Sur 0 -- -- 77
2019-06-07 08:00:00 14.6 15 Sur 26 Sur 0 -- -- 87
2019-06-07 07:00:00 13 14 Sudeste 30 Sudeste 0 -- -- 92
2019-06-07 06:00:00 12.8 16 Sudeste 29 Sudeste 0 -- -- 90
2019-06-07 05:00:00 13.4 18 Sudeste 33 Sudeste 0 -- -- 89
2019-06-07 04:00:00 13.3 17 Sudeste 37 Sudeste 0 -- -- 89
2019-06-07 03:00:00 13.1 22 Sudeste 36 Sudeste 0 -- -- 88
2019-06-07 02:00:00 11.5 20 Sudeste 28 Sudeste 0 -- -- 86
2019-06-07 01:00:00 11.6 17 Sudeste 26 Sudeste 0 -- -- 84
2019-06-07 00:00:00 11.4 13 Sudeste 21 Sudeste 0 -- -- 83
2019-06-06 23:00:00 11.8 13 Sudeste 30 Este 0 -- -- 85
2019-06-06 22:00:00 12.9 17 Sudeste 30 Sudeste 0 -- -- 82
2019-06-06 21:00:00 15 20 Sudeste 33 Sudeste 0 -- -- 62
2019-06-06 20:00:00 16.7 15 Sur 36 Sudeste 0 -- -- 55
2019-06-06 19:00:00 17.4 26 Sudeste 44 Sudeste 0 -- -- 57
2019-06-06 18:00:00 18.6 15 Sur 39 Sur 0 -- -- 52
2019-06-06 17:00:00 18.3 20 Sur 38 Sudeste 0 -- -- 52
2019-06-06 16:00:00 19.5 17 Sur 38 Sudeste 0 -- -- 51
2019-06-06 15:00:00 19.7 12 Sur 35 Sur 0 -- -- 52
2019-06-06 14:00:00 19 12 Sur 28 Sudoeste 0 -- -- 56
2019-06-06 13:00:00 19.6 13 Sur 32 Sudeste 0 -- -- 52
2019-06-06 12:00:00 18.5 13 Sur 25 Sur 0 -- -- 57
2019-06-06 11:00:00 18.4 11 Sudeste 22 Oeste 0 -- -- 49
2019-06-06 10:00:00 16.2 10 Sur 19 Sudoeste 0 -- -- 49
2019-06-06 09:00:00 14.4 7 Sudeste 16 Sur 0 -- -- 55
2019-06-06 08:00:00 6.5 6 Sudeste 9 Sudeste 0 -- -- 90
2019-06-06 07:00:00 2.3 6 Sudeste 8 Sudeste 0 -- -- 96
2019-06-06 06:00:00 2.6 4 Sudeste 7 Sudeste 0 -- -- 95
2019-06-06 05:00:00 3.1 5 Sudeste 9 Sudeste 0 -- -- 95
2019-06-06 04:00:00 3.6 5 Sudeste 7 Sudeste 0 -- -- 92
2019-06-06 03:00:00 5.4 5 Sudeste 10 Sudeste 0 -- -- 86
2019-06-06 02:00:00 8.6 0 Calma 14 Noroeste 0 -- -- 73
2019-06-06 01:00:00 10.1 5 Noroeste 17 Oeste 0 -- -- 68
2019-06-06 00:00:00 11.6 8 Noroeste 23 Oeste 0 -- -- 63
2019-06-05 23:00:00 12.3 12 Oeste 23 Noroeste 0 -- -- 61
2019-06-05 22:00:00 13.5 22 Noroeste 44 Oeste 0 -- -- 59
2019-06-05 21:00:00 15.1 34 Noroeste 53 Noroeste 0 -- -- 54
2019-06-05 20:00:00 15.5 31 Noroeste 53 Noroeste 0 -- -- 56
2019-06-05 19:00:00 16.6 29 Noroeste 51 Oeste 0 -- -- 53
2019-06-05 18:00:00 17.4 33 Noroeste 49 Noroeste 0 -- -- 51
2019-06-05 17:00:00 17.2 30 Noroeste 41 Oeste 0 -- -- 58
2019-06-05 16:00:00 14.4 23 Noroeste 46 Noroeste 0 -- -- 79
2019-06-05 15:00:00 15.6 24 Noroeste 40 Oeste 0 -- -- 73
2019-06-05 14:00:00 16.1 23 Noroeste 34 Noroeste 0 -- -- 73
2019-06-05 13:00:00 15.2 18 Noroeste 28 Noroeste 0 -- -- 87
2019-06-05 12:00:00 16.1 14 Noroeste 22 Sudoeste 0 -- -- 81
2019-06-05 11:00:00 19.6 10 Sur 19 Sudoeste 0 -- -- 60
2019-06-05 10:00:00 18.4 10 Sur 22 Sudeste 0 -- -- 68
2019-06-05 09:00:00 17 10 Sudeste 31 Sudeste 0 -- -- 74
2019-06-05 08:00:00 15.2 19 Sudeste 27 Sudeste 0 -- -- 82
2019-06-05 07:00:00 12.7 15 Sudeste 19 Sudeste 0 -- -- 94
2019-06-05 06:00:00 8.6 5 Sudeste 9 Sudeste 0 -- -- 97
2019-06-05 05:00:00 10.1 3 Este 8 Sur 0 -- -- 95
2019-06-05 04:00:00 11.8 10 Sudeste 15 Este 0 -- -- 95
2019-06-05 03:00:00 13.7 8 Este 21 Sudeste 0 -- -- 89
2019-06-05 02:00:00 14.4 17 Sudeste 32 Sudeste 0 -- -- 88
2019-06-05 01:00:00 14.6 17 Sudeste 31 Sudeste 0 -- -- 80
2019-06-05 00:00:00 14.9 16 Sudeste 27 Sudeste 0 -- -- 75
2019-06-04 23:00:00 15.1 17 Sudeste 32 Sudeste 0 -- -- 75
2019-06-04 22:00:00 16.6 24 Sudeste 36 Sudeste 0 -- -- 57
2019-06-04 21:00:00 17.7 22 Sudeste 39 Sudeste 0 -- -- 49
2019-06-04 20:00:00 19.8 21 Sudeste 39 Sudeste 0 -- -- 42
2019-06-04 19:00:00 21.5 23 Sudeste 42 Sur 0 -- -- 39
2019-06-04 18:00:00 23.3 21 Sur 34 Sudeste 0 -- -- 37
2019-06-04 17:00:00 24 17 Sur 36 Sudeste 0 -- -- 37
2019-06-04 16:00:00 24.4 19 Sudeste 36 Sudeste 0 -- -- 38
2019-06-04 15:00:00 24.1 19 Sur 38 Sudeste 0 -- -- 40
2019-06-04 14:00:00 23.9 16 Sur 39 Sudeste 0 -- -- 41
2019-06-04 13:00:00 23.7 20 Sudeste 39 Sudeste 0 -- -- 41
2019-06-04 12:00:00 22.4 20 Sur 40 Sudeste 0 -- -- 43
2019-06-04 11:00:00 21.6 17 Sur 34 Sur 0 -- -- 43
2019-06-04 10:00:00 20.3 18 Sur 32 Sudeste 0 -- -- 43
2019-06-04 09:00:00 18.9 19 Sur 31 Sur 0 -- -- 46
2019-06-04 08:00:00 16.4 15 Sudeste 24 Sudeste 0 -- -- 55
2019-06-04 07:00:00 13.8 14 Sudeste 21 Sudeste 0 -- -- 61
2019-06-04 06:00:00 13.9 14 Sur 21 Sudeste 0 -- -- 62
2019-06-04 05:00:00 14.7 12 Sudeste 21 Sur 0 -- -- 60
2019-06-04 04:00:00 14.2 13 Sudeste 21 Sudeste 0 -- -- 65
2019-06-04 03:00:00 12.7 11 Sudeste 15 Sudeste 0 -- -- 73
2019-06-04 02:00:00 13.6 4 Este 21 Sudeste 0 -- -- 71
2019-06-04 01:00:00 14.4 7 Este 20 Sudeste 0 -- -- 69
2019-06-04 00:00:00 15.2 12 Sudeste 23 Sur 0 -- -- 66
2019-06-03 23:00:00 15.9 12 Sudeste 26 Sudeste 0 -- -- 60
2019-06-03 22:00:00 16.3 19 Sudeste 30 Sur 0 -- -- 56
2019-06-03 21:00:00 18 15 Sudeste 26 Sur 0 -- -- 49
2019-06-03 20:00:00 20.6 15 Sudeste 31 Sur 0 -- -- 37
2019-06-03 19:00:00 21.2 14 Sur 32 Sur 0 -- -- 40
2019-06-03 18:00:00 22.8 15 Sur 33 Sur 0 -- -- 32
2019-06-03 17:00:00 23.3 19 Sur 41 Sur 0 -- -- 34
2019-06-03 16:00:00 23.4 19 Sur 38 Sudeste 0 -- -- 38
2019-06-03 15:00:00 23.4 18 Sur 36 Sudoeste 0 -- -- 34
2019-06-03 14:00:00 24.3 18 Sur 36 Sur 0 -- -- 32
2019-06-03 13:00:00 23.8 18 Sur 32 Sur 0 -- -- 34
2019-06-03 12:00:00 23.1 18 Sur 31 Sur 0 -- -- 36
2019-06-03 11:00:00 22.4 15 Sur 32 Sudoeste 0 -- -- 37
2019-06-03 10:00:00 22 13 Sur 31 Sur 0 -- -- 37
2019-06-03 09:00:00 20.6 13 Sur 25 Sur 0 -- -- 40
2019-06-03 08:00:00 15.9 8 Sudeste 16 Sur 0 -- -- 55
2019-06-03 07:00:00 9.3 7 Sudeste 17 Sudeste 0 -- -- 76
2019-06-03 06:00:00 8.6 5 Sudeste 13 Sudeste 0 -- -- 80
2019-06-03 05:00:00 9.3 6 Sudeste 14 Sudeste 0 -- -- 79
2019-06-03 04:00:00 11.6 4 Sudeste 13 Este 0 -- -- 68
2019-06-03 03:00:00 15.1 8 Sudeste 21 Sudeste 0 -- -- 55
2019-06-03 02:00:00 15.1 10 Sudeste 21 Sudeste 0 -- -- 55
2019-06-03 01:00:00 15.7 9 Sudeste 21 Sudeste 0 -- -- 50
2019-06-03 00:00:00 15.7 12 Sudeste 22 Sudeste 0 -- -- 45
2019-06-02 23:00:00 15.8 14 Sudeste 23 Este 0 -- -- 42
2019-06-02 22:00:00 16.4 16 Sudeste 25 Sudeste 0 -- -- 41
2019-06-02 21:00:00 18.6 11 Sudeste 27 Sudeste 0 -- -- 37
2019-06-02 20:00:00 20.4 18 Sudeste 31 Sur 0 -- -- 34
2019-06-02 19:00:00 22.3 15 Sudeste 31 Sur 0 -- -- 33
2019-06-02 18:00:00 23.7 17 Sur 32 Sur 0 -- -- 31
2019-06-02 17:00:00 24.3 16 Sur 33 Sudoeste 0 -- -- 32
2019-06-02 16:00:00 24.4 17 Sur 30 Sudeste 0 -- -- 32
2019-06-02 15:00:00 24.7 14 Sur 28 Sur 0 -- -- 35
2019-06-02 14:00:00 24.3 17 Sudoeste 26 Sur 0 -- -- 34
2019-06-02 13:00:00 24.7 11 Sur 23 Sudoeste 0 -- -- 35
2019-06-02 12:00:00 24.2 12 Sur 24 Sudeste 0 -- -- 37
2019-06-02 11:00:00 23.2 12 Sur 21 Sur 0 -- -- 39
2019-06-02 10:00:00 22 10 Sur 17 Sur 0 -- -- 39
2019-06-02 09:00:00 20.2 9 Sudeste 12 Sudeste 0 -- -- 50
2019-06-02 08:00:00 12.5 2 Sudeste 7 Sudeste 0 -- -- 74
2019-06-02 07:00:00 7.7 5 Sudeste 8 Sudeste 0 -- -- 89
2019-06-02 06:00:00 8.3 5 Sudeste 11 Sudeste 0 -- -- 84
2019-06-02 05:00:00 9.3 8 Sudeste 11 Sudeste 0 -- -- 79
2019-06-02 04:00:00 10.7 6 Sudeste 10 Sudeste 0 -- -- 71
2019-06-02 03:00:00 11.6 6 Sudeste 15 Este 0 -- -- 66
2019-06-02 02:00:00 14.9 10 Este 18 Este 0 -- -- 51
2019-06-02 01:00:00 15.5 9 Este 18 Sudeste 0 -- -- 53
2019-06-02 00:00:00 15.4 12 Sudeste 19 Sudeste 0 -- -- 52
2019-06-01 23:00:00 15.4 10 Sudeste 19 Este 0 -- -- 52
2019-06-01 22:00:00 16.3 10 Sudeste 21 Sudeste 0 -- -- 47
2019-06-01 21:00:00 18.2 13 Sudeste 23 Sudeste 0 -- -- 43
2019-06-01 20:00:00 20.4 15 Sur 30 Sur 0 -- -- 41
2019-06-01 19:00:00 22.4 13 Sur 28 Sur 0 -- -- 40
2019-06-01 18:00:00 23.5 17 Sur 29 Sur 0 -- -- 41
2019-06-01 17:00:00 24.6 13 Sur 27 Sur 0 -- -- 43
2019-06-01 16:00:00 25.4 12 Sur 24 Sur 0 -- -- 42
2019-06-01 15:00:00 25.9 10 Sudoeste 22 Sudeste 0 -- -- 41
2019-06-01 14:00:00 25.8 10 Sur 20 Sudeste 0 -- -- 42
2019-06-01 13:00:00 25.5 6 Este 22 Sudeste 0 -- -- 39
2019-06-01 12:00:00 24.7 12 Sudeste 22 Sudeste 0 -- -- 39
2019-06-01 11:00:00 24.7 6 Este 14 Este 0 -- -- 38
2019-06-01 10:00:00 23.2 4 Este 9 Este 0 -- -- 44
2019-06-01 09:00:00 19.5 5 Sudeste 9 Sudeste 0 -- -- 57
2019-06-01 08:00:00 11.8 6 Sudeste 10 Sudeste 0 -- -- 82
2019-06-01 07:00:00 7.7 4 Este 13 Sudeste 0 -- -- 93
2019-06-01 06:00:00 7.9 12 Sudeste 14 Sudeste 0 -- -- 92
2019-06-01 05:00:00 8.5 7 Sudeste 12 Sudeste 0 -- -- 90
2019-06-01 04:00:00 9.1 6 Sudeste 13 Sudeste 0 -- -- 89
2019-06-01 03:00:00 9.5 9 Sudeste 12 Sudeste 0 -- -- 89
2019-06-01 02:00:00 10.3 6 Sudeste 13 Sudeste 0 -- -- 86
2019-06-01 01:00:00 11.2 6 Sudeste 11 Sudeste 0 -- -- 82
2019-06-01 00:00:00 12.7 8 Sudeste 21 Sudeste 0 -- -- 75
2019-05-31 23:00:00 14.6 17 Este 26 Este 0 -- -- 66
2019-05-31 22:00:00 15.1 18 Este 24 Sudeste 0 -- -- 63
2019-05-31 21:00:00 16.8 16 Sudeste 29 Sudeste 0 -- -- 58
2019-05-31 20:00:00 18.9 13 Sudeste 32 Sur 0 -- -- 53
2019-05-31 19:00:00 20.4 15 Sur 28 Sudoeste 0 -- -- 49
2019-05-31 18:00:00 21.2 14 Sur 29 Sur 0 -- -- 49
2019-05-31 17:00:00 21.8 15 Sur 34 Sudoeste 0 -- -- 48
2019-05-31 16:00:00 22.3 15 Sudoeste 27 Sudoeste 0 -- -- 45
2019-05-31 15:00:00 23 12 Sudoeste 25 Sudoeste 0 -- -- 41
2019-05-31 14:00:00 23.1 9 Sudoeste 21 Sudoeste 0 -- -- 38
2019-05-31 13:00:00 22.7 9 Sudoeste 26 Sur 0 -- -- 38
2019-05-31 12:00:00 21.6 12 Sudoeste 27 Sudeste 0 -- -- 39
2019-05-31 11:00:00 20.4 12 Sudoeste 25 Sudeste 0 -- -- 40
2019-05-31 10:00:00 19.2 9 Sur 22 Sudeste 0 -- -- 42
2019-05-31 09:00:00 17.7 10 Sur 20 Sudeste 0 -- -- 47
2019-05-31 08:00:00 10.2 8 Sudeste 13 Sudeste 0 -- -- 82
2019-05-31 07:00:00 5.5 9 Sudeste 12 Sudeste 0 -- -- 96
2019-05-31 06:00:00 5.6 6 Sudeste 9 Sudeste 0 -- -- 93
2019-05-31 05:00:00 6.4 5 Sudeste 12 Sudeste 0 -- -- 92
2019-05-31 04:00:00 6.8 10 Sudeste 14 Sudeste 0 -- -- 91
2019-05-31 03:00:00 7.3 10 Sudeste 14 Sudeste 0 -- -- 90
2019-05-31 02:00:00 7.8 11 Sudeste 15 Sudeste 0 -- -- 90
2019-05-31 01:00:00 9.3 9 Sudeste 19 Sudeste 0 -- -- 85
2019-05-31 00:00:00 11.7 15 Sudeste 22 Sudeste 0 -- -- 78
2019-05-30 23:00:00 12.1 14 Sudeste 21 Este 0 -- -- 78
2019-05-30 22:00:00 13.6 14 Sudeste 21 Sudeste 0 -- -- 72
2019-05-30 21:00:00 16 13 Sudeste 22 Sudeste 0 -- -- 63
2019-05-30 20:00:00 18.2 12 Sur 27 Sur 0 -- -- 58
2019-05-30 19:00:00 20.8 13 Sudoeste 26 Sur 0 -- -- 53
2019-05-30 18:00:00 22.1 14 Sudoeste 30 Sur 0 -- -- 49
2019-05-30 17:00:00 23.1 14 Sudoeste 21 Oeste 0 -- -- 45
2019-05-30 16:00:00 23.7 8 Oeste 19 Oeste 0 -- -- 37
2019-05-30 15:00:00 22.6 11 Noroeste 21 Noroeste 0 -- -- 41
2019-05-30 14:00:00 21.7 9 Noroeste 19 Oeste 0 -- -- 41
2019-05-30 13:00:00 20.3 13 Noroeste 18 Oeste 0 -- -- 41
2019-05-30 12:00:00 19.5 9 Oeste 18 Oeste 0 -- -- 46
2019-05-30 11:00:00 17.7 5 Noroeste 13 Oeste 0 -- -- 53
2019-05-30 10:00:00 15.1 9 Noroeste 17 Oeste 0 -- -- 63
2019-05-30 09:00:00 12.5 12 Noroeste 15 Noroeste 0 -- -- 73
2019-05-30 08:00:00 7.4 0 Calma 6 Sudeste 0 -- -- 100
2019-05-30 07:00:00 2.7 6 Sudeste 8 Sudeste 0 -- -- 99
2019-05-30 06:00:00 3 3 Sudeste 5 Sudeste 0 -- -- 98
2019-05-30 05:00:00 3.6 4 Sudeste 9 Sudeste 0 -- -- 98
2019-05-30 04:00:00 4.5 4 Sudeste 7 Sudeste 0 -- -- 97
2019-05-30 03:00:00 5.6 4 Este 10 Sudeste 0 -- -- 97
2019-05-30 02:00:00 6.7 10 Sudeste 13 Este 0 -- -- 96
2019-05-30 01:00:00 7.9 8 Sudeste 13 Sudeste 0 -- -- 94
2019-05-30 00:00:00 10.4 14 Sudeste 21 Este 0 -- -- 92
2019-05-29 23:00:00 11.4 15 Este 23 Este 0 -- -- 88
2019-05-29 22:00:00 12.8 13 Este 21 Este 0 -- -- 78
2019-05-29 21:00:00 16.1 8 Sudeste 17 Noroeste 0 -- -- 63
2019-05-29 20:00:00 20.4 14 Noroeste 24 Noroeste 0 -- -- 31
2019-05-29 19:00:00 21.1 17 Noroeste 29 Oeste 0 -- -- 30
2019-05-29 18:00:00 21.1 16 Noroeste 31 Noroeste 0 -- -- 31
2019-05-29 17:00:00 21 12 Oeste 28 Oeste 0 -- -- 33
2019-05-29 16:00:00 20.3 19 Noroeste 33 Noroeste 0 -- -- 35
2019-05-29 15:00:00 19.4 17 Noroeste 34 Noroeste 0 -- -- 37
2019-05-29 14:00:00 18 18 Noroeste 40 Noroeste 0 -- -- 38
2019-05-29 13:00:00 16.7 22 Noroeste 33 Oeste 0 -- -- 44
2019-05-29 12:00:00 15.7 21 Noroeste 31 Oeste 0 -- -- 48
2019-05-29 11:00:00 14 17 Noroeste 29 Noroeste 0 -- -- 60
2019-05-29 10:00:00 11.6 21 Noroeste 29 Noroeste 0 -- -- 67
2019-05-29 09:00:00 10 19 Noroeste 31 Noroeste 0 -- -- 74
2019-05-29 08:00:00 8.1 9 Noroeste 15 Noroeste 0 -- -- 81
2019-05-29 07:00:00 5.5 6 Noroeste 13 Noroeste 0 -- -- 90
2019-05-29 06:00:00 5.9 7 Noroeste 14 Noroeste 0 -- -- 89
2019-05-29 05:00:00 6.6 9 Noroeste 17 Noroeste 0 -- -- 86
2019-05-29 04:00:00 7.5 13 Noroeste 21 Noroeste 0 -- -- 82
2019-05-29 03:00:00 7.6 9 Noroeste 22 Oeste 0 -- -- 80
2019-05-29 02:00:00 8.6 11 Noroeste 18 Oeste 0 -- -- 75
2019-05-29 01:00:00 7.3 4 Norte 12 Noroeste 0 -- -- 81
2019-05-29 00:00:00 7.7 4 Sudeste 10 Sudoeste 0 -- -- 82
2019-05-28 23:00:00 11.4 5 Sudeste 24 Oeste 0 -- -- 61
2019-05-28 22:00:00 13.2 12 Oeste 33 Oeste 0 -- -- 53
2019-05-28 21:00:00 15 15 Oeste 41 Oeste 0 -- -- 53
2019-05-28 20:00:00 17.7 24 Noroeste 38 Noroeste 0 -- -- 46
2019-05-28 19:00:00 19.1 22 Noroeste 41 Noroeste 0 -- -- 43
2019-05-28 18:00:00 19.9 23 Noroeste 44 Oeste 0 -- -- 42
2019-05-28 17:00:00 20 25 Noroeste 38 Noroeste 0 -- -- 45
2019-05-28 16:00:00 19.6 22 Noroeste 38 Noroeste 0 -- -- 47
2019-05-28 15:00:00 18.6 24 Noroeste 38 Oeste 0 -- -- 51
2019-05-28 14:00:00 17.3 27 Noroeste 38 Noroeste 0 -- -- 53
2019-05-28 13:00:00 15.9 27 Noroeste 39 Noroeste 0 -- -- 58
2019-05-28 12:00:00 14.3 28 Noroeste 39 Noroeste 0 -- -- 62
2019-05-28 11:00:00 13.3 26 Noroeste 35 Noroeste 0 -- -- 66
2019-05-28 10:00:00 12 26 Noroeste 37 Noroeste 0 -- -- 68
2019-05-28 09:00:00 10.5 24 Noroeste 32 Noroeste 0 -- -- 73
2019-05-28 08:00:00 8.9 11 Noroeste 21 Noroeste 0 -- -- 84
2019-05-28 07:00:00 8.6 10 Noroeste 16 Noroeste 0 -- -- 88
2019-05-28 06:00:00 8 6 Noroeste 14 Noroeste 0 -- -- 94
2019-05-28 05:00:00 6.6 3 Sudeste 6 Sudeste 0 -- -- 97
2019-05-28 04:00:00 8 2 Norte 6 Nordeste 0 -- -- 98
2019-05-28 03:00:00 8.9 3 Sudeste 5 Este 0 -- -- 97
2019-05-28 02:00:00 10.2 5 Sudeste 9 Sudeste 0 -- -- 96
2019-05-28 01:00:00 10.9 4 Este 10 Sudeste 0 -- -- 93
2019-05-28 00:00:00 12.4 4 Sur 15 Sudeste 0 -- -- 91
2019-05-27 23:00:00 14.6 5 Sur 13 Sudeste 0 -- -- 84
2019-05-27 22:00:00 15.4 3 Sur 10 Sudeste 0 -- -- 84
2019-05-27 21:00:00 17.3 4 Sudeste 7 Sudeste 0 -- -- 78
2019-05-27 20:00:00 19.7 6 Noroeste 22 Noroeste 0 -- -- 61
2019-05-27 19:00:00 21.8 15 Noroeste 30 Noroeste 0 -- -- 52
2019-05-27 18:00:00 21.5 20 Noroeste 34 Noroeste 0 -- -- 50
2019-05-27 17:00:00 21.1 22 Noroeste 34 Noroeste 0 -- -- 47
2019-05-27 16:00:00 19.5 21 Noroeste 35 Oeste 0 -- -- 56
2019-05-27 15:00:00 19.8 19 Noroeste 30 Noroeste 0 -- -- 57
2019-05-27 14:00:00 17.7 24 Noroeste 33 Oeste 0 -- -- 60
2019-05-27 13:00:00 17 21 Noroeste 36 Noroeste 0 -- -- 65
2019-05-27 12:00:00 16.1 22 Noroeste 31 Noroeste 0 -- -- 69
2019-05-27 11:00:00 14.7 17 Noroeste 31 Noroeste 0 -- -- 73
2019-05-27 10:00:00 13.4 13 Noroeste 26 Oeste 0 -- -- 79
2019-05-27 09:00:00 11.2 21 Noroeste 32 Noroeste 0 -- -- 87
2019-05-27 08:00:00 10 16 Noroeste 23 Noroeste 0 -- -- 92
2019-05-27 07:00:00 8.4 11 Noroeste 18 Noroeste 0 -- -- 96
2019-05-27 06:00:00 8.4 12 Noroeste 18 Noroeste 0 -- -- 96
2019-05-27 05:00:00 8.8 10 Noroeste 17 Noroeste 0 -- -- 94
2019-05-27 04:00:00 9.5 10 Noroeste 15 Noroeste 0 -- -- 93
2019-05-27 03:00:00 10.2 9 Noroeste 14 Noroeste 0 -- -- 92
2019-05-27 02:00:00 10.1 6 Noroeste 10 Noroeste 0 -- -- 93
2019-05-27 01:00:00 10.9 5 Noroeste 12 Noroeste 0 -- -- 90
2019-05-27 00:00:00 9.6 2 Este 7 Norte 0 -- -- 92
2019-05-26 23:00:00 12 2 Noroeste 10 Este 0 -- -- 84
2019-05-26 22:00:00 14.5 4 Este 10 Sudoeste 0 -- -- 73
2019-05-26 21:00:00 18.1 5 Sudoeste 25 Noroeste 0 -- -- 58
2019-05-26 20:00:00 20.6 15 Noroeste 30 Noroeste 0 -- -- 49
2019-05-26 19:00:00 19.5 12 Noroeste 22 Noroeste 0 -- -- 52
2019-05-26 18:00:00 19.8 16 Noroeste 31 Oeste 0 -- -- 50
2019-05-26 17:00:00 20.3 19 Oeste 30 Noroeste 0 -- -- 47
2019-05-26 16:00:00 20.3 20 Oeste 35 Noroeste 0 -- -- 49
2019-05-26 15:00:00 19.1 21 Noroeste 33 Noroeste 0 -- -- 58
2019-05-26 14:00:00 17.7 20 Noroeste 32 Oeste 0 -- -- 64
2019-05-26 13:00:00 16.5 20 Noroeste 34 Noroeste 0 -- -- 66
2019-05-26 12:00:00 14.9 23 Noroeste 35 Oeste 0 -- -- 71
2019-05-26 11:00:00 13.1 27 Noroeste 36 Oeste 0 -- -- 75
2019-05-26 10:00:00 11.4 22 Noroeste 33 Oeste 0 -- -- 82
2019-05-26 09:00:00 10 19 Noroeste 33 Noroeste 0 -- -- 90
2019-05-26 08:00:00 8.6 22 Noroeste 30 Noroeste 0 -- -- 96
2019-05-26 07:00:00 7.3 13 Noroeste 18 Noroeste 0 -- -- 99
2019-05-26 06:00:00 7.5 12 Noroeste 17 Noroeste 0 -- -- 98
2019-05-26 05:00:00 8 12 Noroeste 16 Noroeste 0 -- -- 97
2019-05-26 04:00:00 8.8 9 Noroeste 17 Noroeste 0 -- -- 96
2019-05-26 03:00:00 9.7 9 Noroeste 18 Noroeste 0 -- -- 94
2019-05-26 02:00:00 10.7 12 Noroeste 18 Noroeste 0 -- -- 93
2019-05-26 01:00:00 11.3 10 Noroeste 15 Noroeste 0 -- -- 92
2019-05-26 00:00:00 11 4 Noroeste 6 Noroeste 0 -- -- 95
2019-05-25 23:00:00 12.9 0 Calma 3 Oeste 0 -- -- 91
2019-05-25 22:00:00 14.4 0 Calma 9 Oeste 0 -- -- 87
2019-05-25 21:00:00 17.1 3 Noroeste 19 Noroeste 0 -- -- 69
2019-05-25 20:00:00 19.5 15 Noroeste 28 Noroeste 0 -- -- 51
2019-05-25 19:00:00 20.2 15 Noroeste 26 Noroeste 0 -- -- 60
2019-05-25 18:00:00 19.2 15 Noroeste 23 Noroeste 0 -- -- 61
2019-05-25 17:00:00 16.2 9 Noroeste 19 Noroeste 0.2 -- -- 82
2019-05-25 16:00:00 16.7 10 Oeste 22 Oeste 0 -- -- 77
2019-05-25 15:00:00 15.9 14 Noroeste 26 Oeste 0 -- -- 80
2019-05-25 14:00:00 15.6 13 Noroeste 22 Oeste 0 -- -- 81
2019-05-25 13:00:00 15.3 14 Oeste 20 Noroeste 0 -- -- 82
2019-05-25 12:00:00 13.6 14 Noroeste 21 Oeste 0 -- -- 90
2019-05-25 11:00:00 12.2 12 Noroeste 20 Oeste 0 -- -- 96
2019-05-25 10:00:00 11.3 14 Noroeste 19 Noroeste 0 -- -- 97
2019-05-25 09:00:00 11 14 Noroeste 20 Noroeste 0 -- -- 99
2019-05-25 08:00:00 10.7 14 Noroeste 18 Oeste 0 -- -- 100
2019-05-25 07:00:00 10.9 12 Noroeste 21 Oeste 0 -- -- 100
2019-05-25 06:00:00 11.6 9 Noroeste 17 Noroeste 0 -- -- 100
2019-05-25 05:00:00 11.7 8 Noroeste 15 Noroeste 0 -- -- 100
2019-05-25 04:00:00 11.5 8 Noroeste 12 Oeste 0 -- -- 100
2019-05-25 03:00:00 11.3 5 Noroeste 9 Noroeste 0 -- -- 100
2019-05-25 02:00:00 11.1 6 Noroeste 9 Noroeste 0.2 -- -- 100
2019-05-25 01:00:00 11 2 Nordeste 4 Nordeste 0.2 -- -- 99
2019-05-25 00:00:00 11.4 2 Sudeste 5 Sudeste 0.2 -- -- 99
2019-05-24 23:00:00 11.6 0 Calma 3 Noroeste 0.6 -- -- 99
2019-05-24 22:00:00 11.8 2 Este 8 Sudeste 0.6 -- -- 98
2019-05-24 21:00:00 11.9 6 Sudeste 14 Este 0.6 -- -- 98
2019-05-24 20:00:00 12.1 10 Sudeste 16 Sudeste 0.8 -- -- 96
2019-05-24 19:00:00 12.4 9 Sudeste 16 Este 1.6 -- -- 95
2019-05-24 18:00:00 12.6 6 Este 15 Nordeste 1.2 -- -- 96
2019-05-24 17:00:00 13 11 Noroeste 18 Oeste 0.8 -- -- 96
2019-05-24 16:00:00 13 10 Noroeste 21 Noroeste 2.8 -- -- 96
2019-05-24 15:00:00 13.8 7 Noroeste 19 Noroeste 1.6 -- -- 93
2019-05-24 14:00:00 13.6 0 Calma 9 Sudeste 2.4 -- -- 94
2019-05-24 13:00:00 12.7 4 Sudeste 9 Sudeste 2.4 -- -- 95
2019-05-24 12:00:00 13 0 Calma 8 Este 2 -- -- 93
2019-05-24 11:00:00 13.1 3 Sur 10 Nordeste 0.4 -- -- 92
2019-05-24 10:00:00 12.7 5 Noroeste 12 Norte 4 -- -- 97
2019-05-24 09:00:00 12.8 4 Noroeste 12 Norte 2.8 -- -- 99
2019-05-24 08:00:00 12.9 7 Noroeste 10 Oeste 0.8 -- -- 97
2019-05-24 07:00:00 12.9 7 Noroeste 18 Noroeste 0 -- -- 97
2019-05-24 06:00:00 12.3 8 Sudeste 18 Sudeste 0 -- -- 96
2019-05-24 05:00:00 12.7 5 Sudeste 9 Sudeste 0.4 -- -- 98
2019-05-24 04:00:00 12.2 5 Sudeste 11 Nordeste 0.8 -- -- 96
2019-05-24 03:00:00 12.4 7 Sudeste 15 Norte 0.2 -- -- 92
2019-05-24 02:00:00 12.7 4 Sudeste 10 Sudeste 0 -- -- 85
2019-05-24 01:00:00 13.6 9 Este 20 Este 0 -- -- 75
2019-05-24 00:00:00 13.7 16 Sudeste 22 Sudeste 0 -- -- 74
2019-05-23 23:00:00 13.9 13 Sudeste 21 Este 0 -- -- 76
2019-05-23 22:00:00 14.7 15 Sudeste 20 Sudeste 0 -- -- 80
2019-05-23 21:00:00 16.5 11 Sudeste 22 Sur 0 -- -- 73
2019-05-23 20:00:00 18.5 15 Sur 30 Sur 0 -- -- 61
2019-05-23 19:00:00 19.3 18 Sur 31 Sur 0 -- -- 59
2019-05-23 18:00:00 20.5 17 Sudoeste 33 Sudoeste 0 -- -- 53
2019-05-23 17:00:00 25.5 9 Sudoeste 27 Oeste 0 -- -- 39
2019-05-23 16:00:00 26.5 15 Oeste 31 Noroeste 0 -- -- 26
2019-05-23 15:00:00 25.7 12 Noroeste 28 Noroeste 0 -- -- 27
2019-05-23 14:00:00 25.5 11 Oeste 22 Noroeste 0 -- -- 27
2019-05-23 13:00:00 24.8 9 Noroeste 21 Oeste 0 -- -- 28
2019-05-23 12:00:00 23.8 6 Oeste 17 Oeste 0 -- -- 34
2019-05-23 11:00:00 22.1 8 Sur 13 Sur 0 -- -- 39
2019-05-23 10:00:00 20.4 6 Sudeste 11 Sudeste 0 -- -- 45
2019-05-23 09:00:00 17.4 7 Sudeste 13 Sudeste 0 -- -- 54
2019-05-23 08:00:00 8.5 6 Sudeste 9 Sudeste 0 -- -- 93
2019-05-23 07:00:00 4.1 4 Sudeste 10 Sudeste 0 -- -- 98
2019-05-23 06:00:00 3.7 6 Sudeste 12 Sudeste 0 -- -- 97
2019-05-23 05:00:00 4.5 6 Sudeste 9 Sudeste 0 -- -- 94
2019-05-23 04:00:00 5.1 6 Sudeste 12 Sudeste 0 -- -- 94
2019-05-23 03:00:00 5.9 10 Sudeste 15 Sudeste 0 -- -- 92
2019-05-23 02:00:00 6.1 9 Sudeste 16 Sudeste 0 -- -- 90
2019-05-23 01:00:00 6.5 10 Sudeste 17 Sudeste 0 -- -- 88
2019-05-23 00:00:00 7.9 13 Sudeste 18 Sudeste 0 -- -- 81
2019-05-22 23:00:00 8.7 9 Sudeste 16 Sudeste 0 -- -- 79
2019-05-22 22:00:00 11.6 7 Sudeste 16 Sudeste 0 -- -- 67
2019-05-22 21:00:00 16 8 Este 23 Sudoeste 0 -- -- 52
2019-05-22 20:00:00 18.8 13 Sur 26 Sudoeste 0 -- -- 44
2019-05-22 19:00:00 20.3 12 Sudoeste 24 Sudoeste 0 -- -- 45
2019-05-22 18:00:00 21.4 13 Sur 26 Sur 0 -- -- 41
2019-05-22 17:00:00 23.2 15 Noroeste 32 Noroeste 0 -- -- 26
2019-05-22 16:00:00 22.7 19 Noroeste 33 Noroeste 0 -- -- 26
2019-05-22 15:00:00 22.3 19 Noroeste 29 Noroeste 0 -- -- 17
2019-05-22 14:00:00 21.9 14 Noroeste 27 Noroeste 0 -- -- 24
2019-05-22 13:00:00 21 12 Noroeste 24 Noroeste 0 -- -- 32
2019-05-22 12:00:00 20 10 Noroeste 18 Noroeste 0 -- -- 40
2019-05-22 11:00:00 18.4 6 Norte 13 Oeste 0 -- -- 54
2019-05-22 10:00:00 15.9 5 Oeste 13 Oeste 0 -- -- 61
2019-05-22 09:00:00 12.5 8 Noroeste 12 Noroeste 0 -- -- 81
2019-05-22 08:00:00 8.6 0 Calma 5 Norte 0 -- -- 100
2019-05-22 07:00:00 7.8 3 Norte 6 Nordeste 0 -- -- 100
2019-05-22 06:00:00 9.6 0 Calma 6 Sudeste 0 -- -- 100
2019-05-22 05:00:00 9.1 4 Sudeste 8 Sudeste 0 -- -- 100
2019-05-22 04:00:00 7.3 7 Sudeste 13 Sudeste 0 -- -- 100
2019-05-22 03:00:00 6 8 Sudeste 12 Sudeste 0 -- -- 97
2019-05-22 02:00:00 7.1 5 Sudeste 12 Sudeste 0 -- -- 96
2019-05-22 01:00:00 8.8 7 Este 11 Este 0 -- -- 97
2019-05-22 00:00:00 8.8 6 Sudeste 17 Sudeste 0 -- -- 95
2019-05-21 23:00:00 9.1 11 Sudeste 19 Sudeste 0 -- -- 89
2019-05-21 22:00:00 11.7 9 Este 19 Este 0 -- -- 75
2019-05-21 21:00:00 14.2 12 Sudeste 21 Sur 0 -- -- 67
2019-05-21 20:00:00 16.9 11 Sur 27 Sur 0 -- -- 58
2019-05-21 19:00:00 18.4 13 Sur 29 Sudoeste 0 -- -- 50
2019-05-21 18:00:00 19.9 13 Sudoeste 23 Sudoeste 0 -- -- 45
2019-05-21 17:00:00 19.3 9 Sudoeste 21 Sudoeste 0 -- -- 47
2019-05-21 16:00:00 21.8 14 Oeste 31 Oeste 0 -- -- 34
2019-05-21 15:00:00 20.8 15 Oeste 30 Noroeste 0 -- -- 34
2019-05-21 14:00:00 20.1 17 Noroeste 29 Noroeste 0 -- -- 35
2019-05-21 13:00:00 18.9 17 Noroeste 27 Noroeste 0 -- -- 39
2019-05-21 12:00:00 18.2 13 Noroeste 21 Noroeste 0 -- -- 38
2019-05-21 11:00:00 16.8 10 Noroeste 16 Noroeste 0 -- -- 52
2019-05-21 10:00:00 14.8 8 Noroeste 12 Noroeste 0 -- -- 59
2019-05-21 09:00:00 11.5 3 Noroeste 7 Noroeste 0 -- -- 76
2019-05-21 08:00:00 5.3 4 Este 9 Sudeste 0 -- -- 100
2019-05-21 07:00:00 1.3 4 Sudeste 9 Sudeste 0 -- -- 100
2019-05-21 06:00:00 1.5 6 Sudeste 10 Sudeste 0 -- -- 99
2019-05-21 05:00:00 1.9 5 Sudeste 11 Sudeste 0 -- -- 98
2019-05-21 04:00:00 2.7 9 Sudeste 13 Sudeste 0 -- -- 99
2019-05-21 03:00:00 3.1 11 Sudeste 13 Sudeste 0 -- -- 98
2019-05-21 02:00:00 3.8 6 Sudeste 11 Sudeste 0 -- -- 96
2019-05-21 01:00:00 4.9 9 Sudeste 15 Sudeste 0 -- -- 95
2019-05-21 00:00:00 7.7 13 Este 17 Este 0 -- -- 88